Terminal Aerodrome Forecast
Issued by NWS

Home | Current Version | Previous Version | Text Only | Print | Product List | Glossary On
Versions: 1 2 3 4 5 6 7 8 9 10 11 12 13 14 15 16 17 18 19 20 21 22 23
000
FTUS46 KOTX 211739
TAFPUW
TAF
KPUW 211739Z 2118/2218 25013G21KT P6SM BKN030
     FM212030 25013G21KT P6SM SCT035 BKN050
     FM220300 13005KT P6SM FEW050
     FM220800 11009KT P6SM FEW150 SCT200
     FM221300 12013KT P6SM SCT100 BKN130 OVC180=

USA.gov is the U.S. government's official web portal to all federal, state and local government web resources and services.